Strona główna
METAR-TAF:

METAR-TAF

Lotnisko :

Chester, Connecticut, Stany Zjednoczone

Szerokość geograficzna: 41-23-02N, Długość geograficzna: 072-30-21W, wysokość: 127 m

Aktualna obserwacja pogody

Raport powstał 24 minut temu, godzina 17:35 UTC
Wiatr 8 kt od północ
Temperatura 1°C
Wilgotność 80%
Ciśnienie 1015 hPa
Widzialność: 16.1 km
Zachmurzenie całkowite na wysokości 800 ft

METAR: KSNC 271735Z AUTO 35008KT 10SM OVC008 01/M02 A2996 RMK AO2

czas: 12:59 (17:59 UTC)


TAF: brakujący

Obserwacja i prognoza pogody dla ponad 4000 lotnisk (raport METAR i TAF).

Dostępne stacje oznaczono żółtymi i czerwonymi punktami na mapie.

Najedź kursorem aby zobaczyć nazwę stacji.

Kliknij aby zobaczyć obserwacje i prognozy pogody.

Aby zmienić mapę: kliknij na zielony przycisk z czarnym krzyżykiem, aby powiększyć; na zielony przycisk z myślnikiem, aby pomniejszyć; na zielone strzałki, aby przejść do map sąsiednich.


METAR-TAF: